createdAt,value
2022-08-03T00:01:25.546Z,21.56
2022-08-03T00:03:27.738Z,21.59
2022-08-03T00:05:29.902Z,21.55
2022-08-03T00:07:31.953Z,21.51
2022-08-03T00:09:35.694Z,21.47
2022-08-03T00:11:38.959Z,21.43
2022-08-03T00:13:41.298Z,21.46
2022-08-03T00:15:43.713Z,21.46
2022-08-03T00:17:52.782Z,21.38
2022-08-03T00:19:55.735Z,21.52
2022-08-03T00:21:57.763Z,21.46
2022-08-03T00:23:59.961Z,21.53
2022-08-03T00:26:02.249Z,21.52
2022-08-03T00:28:05.087Z,21.50
2022-08-03T00:30:07.829Z,21.59
2022-08-03T00:32:09.902Z,21.53
2022-08-03T00:34:14.063Z,21.52
2022-08-03T00:36:16.152Z,21.51
2022-08-03T00:38:26.511Z,21.39
2022-08-03T00:40:29.065Z,21.42
2022-08-03T00:42:31.371Z,21.41
2022-08-03T00:44:40.868Z,21.52
2022-08-03T00:46:42.810Z,21.49
2022-08-03T00:48:44.744Z,21.35
2022-08-03T00:50:48.296Z,21.44
2022-08-03T00:52:57.684Z,21.42
2022-08-03T00:55:01.534Z,21.50
2022-08-03T00:57:03.658Z,21.40
2022-08-03T00:59:05.844Z,21.43
2022-08-03T01:01:08.156Z,21.30
2022-08-03T01:03:12.100Z,21.30
2022-08-03T01:05:14.603Z,21.23
2022-08-03T01:07:45.335Z,21.18
2022-08-03T01:10:12.704Z,21.27
2022-08-03T01:12:25.546Z,21.29
2022-08-03T01:14:46.977Z,21.33
2022-08-03T01:16:54.848Z,21.20
2022-08-03T01:19:33.742Z,21.25
2022-08-03T01:22:04.547Z,21.26
2022-08-03T01:24:32.716Z,21.28
2022-08-03T01:26:52.857Z,21.20
2022-08-03T01:29:16.531Z,21.10
2022-08-03T01:31:24.217Z,20.92
2022-08-03T01:33:35.812Z,21.02
2022-08-03T01:35:55.567Z,20.98
2022-08-03T01:38:00.987Z,20.93
2022-08-03T01:40:05.271Z,20.95
2022-08-03T01:42:10.431Z,20.99
2022-08-03T01:44:30.155Z,20.94
2022-08-03T01:46:35.054Z,20.99
2022-08-03T01:48:40.024Z,21.01
2022-08-03T01:50:43.766Z,20.99
2022-08-03T01:52:48.367Z,21.00
2022-08-03T01:54:52.976Z,20.95
2022-08-03T01:56:58.746Z,20.83
2022-08-03T01:59:02.985Z,20.95
2022-08-03T02:01:07.243Z,20.91
2022-08-03T02:03:12.839Z,20.99
2022-08-03T02:05:17.267Z,20.97
2022-08-03T02:07:21.035Z,21.03
2022-08-03T02:09:25.869Z,21.02
2022-08-03T02:11:32.295Z,21.11
2022-08-03T02:13:38.543Z,21.07
2022-08-03T02:15:44.279Z,21.13
2022-08-03T02:17:47.878Z,21.04
2022-08-03T02:19:51.469Z,21.06
2022-08-03T02:21:56.316Z,21.11
2022-08-03T02:24:03.188Z,21.09
2022-08-03T02:26:09.674Z,21.07
2022-08-03T02:28:33.206Z,21.06
2022-08-03T02:30:40.564Z,21.06
2022-08-03T02:32:48.896Z,21.02
2022-08-03T02:34:53.533Z,20.99
2022-08-03T02:37:00.464Z,21.03
2022-08-03T02:39:03.990Z,21.05
2022-08-03T02:41:11.854Z,21.08
2022-08-03T02:43:24.460Z,20.98
2022-08-03T02:45:29.032Z,21.08
2022-08-03T02:47:53.136Z,20.96
2022-08-03T02:49:58.687Z,20.88
2022-08-03T02:52:02.787Z,21.00
2022-08-03T02:54:06.706Z,20.91
2022-08-03T02:56:10.037Z,20.91
2022-08-03T02:58:25.048Z,21.00
2022-08-03T03:00:28.613Z,21.05
2022-08-03T03:02:31.350Z,21.03
2022-08-03T03:04:34.176Z,21.10
2022-08-03T03:06:36.443Z,21.09
2022-08-03T03:08:39.404Z,21.11
2022-08-03T03:10:42.403Z,21.12
2022-08-03T03:12:46.882Z,21.12
2022-08-03T03:14:49.108Z,21.10
2022-08-03T03:16:52.732Z,21.12
2022-08-03T03:19:02.008Z,21.12
2022-08-03T03:21:05.169Z,21.03
2022-08-03T03:23:08.738Z,21.10
2022-08-03T03:25:10.710Z,21.11
2022-08-03T03:27:16.481Z,21.06
2022-08-03T03:29:19.106Z,21.12
2022-08-03T03:31:21.112Z,21.03
2022-08-03T03:33:23.822Z,21.14
2022-08-03T03:35:27.385Z,21.03
2022-08-03T03:37:29.372Z,21.11
2022-08-03T03:39:31.279Z,21.02
2022-08-03T03:41:33.897Z,21.00
2022-08-03T03:43:36.918Z,21.07
2022-08-03T03:45:41.609Z,21.14
2022-08-03T03:47:43.535Z,21.10
2022-08-03T03:49:46.253Z,21.09
2022-08-03T03:51:48.347Z,21.07
2022-08-03T03:54:01.232Z,21.05
2022-08-03T03:56:03.262Z,21.07
2022-08-03T03:58:05.555Z,21.01
2022-08-03T04:00:08.105Z,21.08
2022-08-03T04:02:11.139Z,21.18
2022-08-03T04:04:31.390Z,21.12
2022-08-03T04:06:51.635Z,21.18
2022-08-03T04:09:19.309Z,21.16
2022-08-03T04:11:30.407Z,21.18
2022-08-03T04:13:40.467Z,21.28
2022-08-03T04:15:42.960Z,21.20
2022-08-03T04:17:46.197Z,21.25
2022-08-03T04:19:51.497Z,21.10
2022-08-03T04:21:58.179Z,21.20
2022-08-03T04:24:03.746Z,21.13
2022-08-03T04:26:10.068Z,21.16
2022-08-03T04:28:30.963Z,21.19
2022-08-03T04:30:37.830Z,21.15
2022-08-03T04:32:45.473Z,21.20
2022-08-03T04:34:48.091Z,21.11
2022-08-03T04:36:53.109Z,21.07
2022-08-03T04:39:18.481Z,21.06
2022-08-03T04:41:23.377Z,21.12
2022-08-03T04:43:26.259Z,21.11
2022-08-03T04:45:30.458Z,21.15
2022-08-03T04:47:36.587Z,21.22
2022-08-03T04:49:39.424Z,21.21
2022-08-03T04:51:42.824Z,21.09
2022-08-03T04:53:44.857Z,21.06
2022-08-03T04:55:46.939Z,21.01
2022-08-03T04:57:48.700Z,20.99
2022-08-03T05:00:02.542Z,21.01
2022-08-03T05:02:05.068Z,21.03
2022-08-03T05:04:08.091Z,20.97
2022-08-03T05:06:11.360Z,20.94
2022-08-03T05:08:13.593Z,21.04
2022-08-03T05:10:16.630Z,21.08
2022-08-03T05:12:18.801Z,20.96
2022-08-03T05:14:28.074Z,21.02
2022-08-03T05:16:30.202Z,20.96
2022-08-03T05:18:32.574Z,21.02
2022-08-03T05:20:34.613Z,21.06
2022-08-03T05:22:36.533Z,20.99
2022-08-03T05:24:38.360Z,20.98
2022-08-03T05:26:47.923Z,21.02
2022-08-03T05:28:51.337Z,21.09
2022-08-03T05:30:53.491Z,21.04
2022-08-03T05:32:55.543Z,21.17
2022-08-03T05:34:57.254Z,21.16
2022-08-03T05:36:58.950Z,21.11
2022-08-03T05:39:02.794Z,21.10
2022-08-03T05:41:21.590Z,21.16
2022-08-03T05:43:25.431Z,21.02
2022-08-03T05:45:28.546Z,21.04
2022-08-03T05:47:30.581Z,21.06
2022-08-03T05:49:32.362Z,21.04
2022-08-03T05:51:34.473Z,20.98
2022-08-03T05:53:36.167Z,21.04
2022-08-03T05:55:37.873Z,21.06
2022-08-03T05:57:40.843Z,21.11
2022-08-03T05:59:53.715Z,21.02
2022-08-03T06:01:57.541Z,21.10
2022-08-03T06:03:59.761Z,21.04
2022-08-03T06:06:01.679Z,21.06
2022-08-03T06:08:03.956Z,21.14
2022-08-03T06:10:36.450Z,21.08
2022-08-03T06:12:28.438Z,21.12
2022-08-03T06:14:30.217Z,21.14
2022-08-03T06:16:32.120Z,21.16
2022-08-03T06:18:34.298Z,21.08
2022-08-03T06:20:36.038Z,21.08
2022-08-03T06:22:37.708Z,21.16
2022-08-03T06:24:53.531Z,21.14
2022-08-03T06:26:57.484Z,21.17
2022-08-03T06:28:59.310Z,21.18
2022-08-03T06:31:01.590Z,21.17
2022-08-03T06:33:03.273Z,21.11
2022-08-03T06:35:08.082Z,21.07
2022-08-03T06:37:09.816Z,21.12
2022-08-03T06:39:13.102Z,21.15
2022-08-03T06:41:14.911Z,21.16
2022-08-03T06:43:16.658Z,21.17
2022-08-03T06:45:18.694Z,21.28
2022-08-03T06:47:20.380Z,21.20
2022-08-03T06:49:22.150Z,21.32
2022-08-03T06:52:02.572Z,21.32
2022-08-03T06:53:45.602Z,21.39
2022-08-03T06:55:51.114Z,21.35
2022-08-03T06:57:59.959Z,21.37
2022-08-03T07:00:09.553Z,21.32
2022-08-03T07:02:16.158Z,21.38
2022-08-03T07:04:21.157Z,21.38
2022-08-03T07:06:22.939Z,21.43
2022-08-03T07:08:33.194Z,21.23
2022-08-03T07:10:36.372Z,21.28
2022-08-03T07:12:55.815Z,21.32
2022-08-03T07:15:01.889Z,21.31
2022-08-03T07:17:04.769Z,21.36
2022-08-03T07:19:13.685Z,21.43
2022-08-03T07:21:17.090Z,21.38
2022-08-03T07:23:19.324Z,21.44
2022-08-03T07:25:21.746Z,21.39
2022-08-03T07:27:23.688Z,21.50
2022-08-03T07:29:25.513Z,21.48
2022-08-03T07:31:27.413Z,21.52
2022-08-03T07:33:35.931Z,21.56
2022-08-03T07:35:37.886Z,21.62
2022-08-03T07:37:39.641Z,21.64
2022-08-03T07:39:41.359Z,21.70
2022-08-03T07:41:43.065Z,21.80
2022-08-03T07:43:45.988Z,21.83
2022-08-03T07:45:50.813Z,21.85
2022-08-03T07:47:53.580Z,21.89
2022-08-03T07:49:56.122Z,21.88
2022-08-03T07:52:17.042Z,21.93
2022-08-03T07:54:18.948Z,21.91
2022-08-03T07:56:21.528Z,22.00
2022-08-03T07:58:24.285Z,22.05
2022-08-03T08:00:26.254Z,22.07
2022-08-03T08:02:28.000Z,22.13
2022-08-03T08:04:30.245Z,22.11
2022-08-03T08:06:32.778Z,22.14
2022-08-03T08:08:34.612Z,22.12
2022-08-03T08:10:36.676Z,22.18
2022-08-03T08:12:39.390Z,22.11
2022-08-03T08:14:42.231Z,22.14
2022-08-03T08:16:43.907Z,22.23
2022-08-03T08:18:45.662Z,22.15
2022-08-03T08:20:47.876Z,22.29
2022-08-03T08:22:55.077Z,22.33
2022-08-03T08:24:56.875Z,22.41
2022-08-03T08:26:58.713Z,22.44
2022-08-03T08:29:00.459Z,22.56
2022-08-03T08:31:02.629Z,22.54
2022-08-03T08:33:04.501Z,22.50
2022-08-03T08:35:07.240Z,22.49
2022-08-03T08:37:08.918Z,22.53
2022-08-03T08:39:10.619Z,22.55
2022-08-03T08:41:13.907Z,22.64
2022-08-03T08:43:15.635Z,22.73
2022-08-03T08:45:18.970Z,22.75
2022-08-03T08:47:24.877Z,22.84
2022-08-03T08:49:28.324Z,22.86
2022-08-03T08:51:54.569Z,22.85
2022-08-03T08:53:57.867Z,22.86
2022-08-03T08:56:02.343Z,22.79
2022-08-03T08:58:06.322Z,22.67
2022-08-03T09:00:11.603Z,22.68
2022-08-03T09:02:13.842Z,22.71
2022-08-03T09:04:16.096Z,22.68
2022-08-03T09:06:17.830Z,22.76
2022-08-03T09:08:20.077Z,22.72
2022-08-03T09:10:22.197Z,22.75
2022-08-03T09:12:42.164Z,22.73
2022-08-03T09:15:00.883Z,22.83
2022-08-03T09:17:06.166Z,22.72
2022-08-03T09:19:14.823Z,22.80
2022-08-03T09:21:32.010Z,22.88
2022-08-03T09:24:02.178Z,22.99
2022-08-03T09:26:04.842Z,22.98
2022-08-03T09:28:13.802Z,23.05
2022-08-03T09:30:36.352Z,23.01
2022-08-03T09:32:38.477Z,23.00
2022-08-03T09:34:40.219Z,22.94
2022-08-03T09:36:46.904Z,22.88
2022-08-03T09:39:06.489Z,22.90
2022-08-03T09:41:18.637Z,22.92
2022-08-03T09:43:23.631Z,22.82
2022-08-03T09:45:30.116Z,22.92
2022-08-03T09:47:36.473Z,23.01
2022-08-03T09:49:41.612Z,23.12
2022-08-03T09:52:30.272Z,23.11
2022-08-03T09:54:10.735Z,23.06
2022-08-03T09:56:33.346Z,23.15
2022-08-03T09:58:47.062Z,23.12
2022-08-03T10:01:23.952Z,23.31
2022-08-03T10:03:28.883Z,23.39
2022-08-03T10:05:33.724Z,23.44
2022-08-03T10:07:48.353Z,23.43
2022-08-03T10:10:30.322Z,23.45
2022-08-03T10:12:21.964Z,23.49
2022-08-03T10:14:26.526Z,23.46
2022-08-03T10:16:33.232Z,23.53
2022-08-03T10:18:35.277Z,23.62
2022-08-03T10:20:44.376Z,23.70
2022-08-03T10:22:57.634Z,23.67
2022-08-03T10:25:06.645Z,23.78
2022-08-03T10:27:10.608Z,23.81
2022-08-03T10:29:18.687Z,23.85
2022-08-03T10:31:24.116Z,24.03
2022-08-03T10:33:50.954Z,24.10
2022-08-03T10:35:57.581Z,24.15
2022-08-03T10:38:02.093Z,24.17
2022-08-03T10:40:05.263Z,24.17
2022-08-03T10:42:13.506Z,24.28
2022-08-03T10:44:21.143Z,24.33
2022-08-03T10:46:22.955Z,24.43
2022-08-03T10:48:26.520Z,24.41
2022-08-03T10:50:28.681Z,24.40
2022-08-03T10:52:32.492Z,24.42
2022-08-03T10:55:07.618Z,24.45
2022-08-03T10:57:58.339Z,24.46
2022-08-03T11:00:02.846Z,24.52
2022-08-03T11:02:08.374Z,24.51
2022-08-03T11:04:19.941Z,24.64
2022-08-03T11:06:24.782Z,24.70
2022-08-03T11:08:32.651Z,24.80
2022-08-03T11:10:35.461Z,24.98
2022-08-03T11:12:37.410Z,24.98
2022-08-03T11:14:49.190Z,25.04
2022-08-03T11:17:07.353Z,25.16
2022-08-03T11:19:20.151Z,25.31
2022-08-03T11:21:51.269Z,25.37
2022-08-03T11:24:04.209Z,25.21
2022-08-03T11:26:11.500Z,25.18
2022-08-03T11:28:27.367Z,25.29
2022-08-03T11:30:29.868Z,25.36
2022-08-03T11:32:37.734Z,25.38
2022-08-03T11:35:11.863Z,25.39
2022-08-03T11:37:21.953Z,25.39
2022-08-03T11:39:47.587Z,25.39
2022-08-03T11:41:49.299Z,25.34
2022-08-03T11:43:51.027Z,25.25
2022-08-03T11:46:28.271Z,25.21
2022-08-03T11:48:34.407Z,25.07
2022-08-03T11:50:38.035Z,25.09
2022-08-03T11:52:42.628Z,25.00
2022-08-03T11:54:44.699Z,25.01
2022-08-03T11:56:47.614Z,25.12
2022-08-03T11:59:11.262Z,25.12
2022-08-03T12:01:22.894Z,25.20
2022-08-03T12:03:24.914Z,25.39
2022-08-03T12:05:38.553Z,25.35
2022-08-03T12:08:04.872Z,25.44
2022-08-03T12:10:12.901Z,25.57
2022-08-03T12:12:16.440Z,25.61
2022-08-03T12:14:48.823Z,25.76
2022-08-03T12:16:46.811Z,25.85
2022-08-03T12:19:15.627Z,26.01
2022-08-03T12:21:18.893Z,25.98
2022-08-03T12:23:20.708Z,26.07
2022-08-03T12:25:39.569Z,26.20
2022-08-03T12:27:41.632Z,26.31
2022-08-03T12:29:43.417Z,26.29
2022-08-03T12:32:00.229Z,26.48
2022-08-03T12:34:04.446Z,26.46
2022-08-03T12:36:09.481Z,26.66
2022-08-03T12:38:13.016Z,26.75
2022-08-03T12:40:20.552Z,26.87
2022-08-03T12:42:31.109Z,26.97
2022-08-03T12:44:35.612Z,27.11
2022-08-03T12:46:43.952Z,27.13
2022-08-03T12:49:06.329Z,27.37
2022-08-03T12:51:12.011Z,27.40
2022-08-03T12:53:29.140Z,27.58
2022-08-03T12:55:57.833Z,27.83
2022-08-03T12:57:56.133Z,27.97
2022-08-03T13:00:21.633Z,27.94
2022-08-03T13:02:31.601Z,28.01
2022-08-03T13:04:36.014Z,27.95
2022-08-03T13:06:37.791Z,28.12
2022-08-03T13:08:39.694Z,28.12
2022-08-03T13:10:42.779Z,28.12
2022-08-03T13:12:58.689Z,28.17
2022-08-03T13:15:01.199Z,27.98
2022-08-03T13:17:03.812Z,27.91
2022-08-03T13:19:06.331Z,27.85
2022-08-03T13:21:17.216Z,27.80
2022-08-03T13:23:22.074Z,27.63
2022-08-03T13:25:24.483Z,27.65
2022-08-03T13:28:04.551Z,27.76
2022-08-03T13:29:48.038Z,27.73
2022-08-03T13:31:50.310Z,27.86
2022-08-03T13:33:52.879Z,27.87
2022-08-03T13:35:55.287Z,27.90
2022-08-03T13:37:57.042Z,28.01
2022-08-03T13:40:02.726Z,28.05
2022-08-03T13:42:06.834Z,28.20
2022-08-03T13:44:29.409Z,28.22
2022-08-03T13:46:30.296Z,28.32
2022-08-03T13:48:36.587Z,28.27
2022-08-03T13:50:43.061Z,28.33
2022-08-03T13:52:57.388Z,28.45
2022-08-03T13:54:59.992Z,28.46
2022-08-03T13:58:01.422Z,28.45
2022-08-03T13:59:25.361Z,28.57
2022-08-03T14:01:54.035Z,28.85
2022-08-03T14:03:52.546Z,28.97
2022-08-03T14:05:54.207Z,29.22
2022-08-03T14:07:56.854Z,29.44
2022-08-03T14:10:06.149Z,29.47
2022-08-03T14:12:09.011Z,29.67
2022-08-03T14:14:11.182Z,29.86
2022-08-03T14:16:16.964Z,29.96
2022-08-03T14:18:29.169Z,29.96
2022-08-03T14:20:48.805Z,29.88
2022-08-03T14:22:56.397Z,30.07
2022-08-03T14:24:58.142Z,29.89
2022-08-03T14:27:07.093Z,29.77
2022-08-03T14:29:10.390Z,29.70
2022-08-03T14:32:10.417Z,29.36
2022-08-03T14:33:34.533Z,29.33
2022-08-03T14:35:36.543Z,29.40
2022-08-03T14:37:38.431Z,29.40
2022-08-03T14:42:02.562Z,29.40
2022-08-03T14:44:05.504Z,29.39
2022-08-03T14:46:07.224Z,29.32
2022-08-03T14:50:30.651Z,29.52
2022-08-03T14:50:42.040Z,29.68
2022-08-03T14:53:05.097Z,29.67
2022-08-03T14:55:07.854Z,29.47
2022-08-03T14:57:09.615Z,29.73
2022-08-03T14:59:11.344Z,29.65
2022-08-03T15:02:02.271Z,29.72
2022-08-03T15:03:34.910Z,29.75
2022-08-03T15:05:36.681Z,29.81
2022-08-03T15:07:39.577Z,29.85
2022-08-03T15:09:41.329Z,29.71
2022-08-03T15:11:43.130Z,29.77
2022-08-03T15:13:44.804Z,29.79
2022-08-03T15:15:47.787Z,29.67
2022-08-03T15:18:00.173Z,29.65
2022-08-03T15:20:23.370Z,29.53
2022-08-03T15:22:25.239Z,29.49
2022-08-03T15:24:36.537Z,29.36
2022-08-03T15:26:41.545Z,29.32
2022-08-03T15:28:43.613Z,29.20
2022-08-03T15:30:45.427Z,29.18
2022-08-03T15:32:56.355Z,28.98
2022-08-03T15:34:58.159Z,28.90
2022-08-03T15:37:16.359Z,29.12
2022-08-03T15:39:18.439Z,28.91
2022-08-03T15:41:20.337Z,28.79
2022-08-03T15:43:23.160Z,28.74
2022-08-03T15:45:24.873Z,28.75
2022-08-03T15:47:29.606Z,28.77
2022-08-03T15:49:31.346Z,28.70
2022-08-03T15:51:33.207Z,28.68
2022-08-03T15:53:35.215Z,28.66
2022-08-03T15:55:36.942Z,28.81
2022-08-03T15:59:03.928Z,28.57
2022-08-03T16:00:02.334Z,28.52
2022-08-03T16:02:04.260Z,28.58
2022-08-03T16:04:06.095Z,28.69
2022-08-03T16:06:08.114Z,28.77
2022-08-03T16:08:13.645Z,28.88
2022-08-03T16:10:17.573Z,28.92
2022-08-03T16:12:19.271Z,28.92
2022-08-03T16:14:32.495Z,28.81
2022-08-03T16:16:41.031Z,28.70
2022-08-03T16:18:42.872Z,28.78
2022-08-03T16:20:45.271Z,28.63
2022-08-03T16:22:54.408Z,28.72
2022-08-03T16:24:56.402Z,28.63
2022-08-03T16:26:58.183Z,28.60
2022-08-03T16:29:02.518Z,28.45
2022-08-03T16:31:05.737Z,28.38
2022-08-03T16:33:07.655Z,28.24
2022-08-03T16:35:19.236Z,27.99
2022-08-03T16:37:38.121Z,27.93
2022-08-03T16:39:40.675Z,27.87
2022-08-03T16:41:54.490Z,27.85
2022-08-03T16:44:08.082Z,27.71
2022-08-03T16:46:11.758Z,27.61
2022-08-03T16:48:14.419Z,27.52
2022-08-03T16:50:19.872Z,27.54
2022-08-03T16:52:21.953Z,27.52
2022-08-03T16:54:24.664Z,27.56
2022-08-03T16:56:29.748Z,27.53
2022-08-03T16:58:41.800Z,27.56
2022-08-03T17:00:46.293Z,27.63
2022-08-03T17:02:55.389Z,27.64
2022-08-03T17:04:58.516Z,27.67
2022-08-03T17:07:01.558Z,27.71
2022-08-03T17:09:17.963Z,27.67
2022-08-03T17:11:20.427Z,27.66
2022-08-03T17:13:22.884Z,27.69
2022-08-03T17:15:51.719Z,27.55
2022-08-03T17:18:04.249Z,27.49
2022-08-03T17:20:09.734Z,27.42
2022-08-03T17:22:20.581Z,27.41
2022-08-03T17:24:41.112Z,27.31
2022-08-03T17:26:49.999Z,27.36
2022-08-03T17:28:57.499Z,27.43
2022-08-03T17:31:23.496Z,27.38
2022-08-03T17:33:35.609Z,27.47
2022-08-03T17:35:38.456Z,27.53
2022-08-03T17:37:57.430Z,27.50
2022-08-03T17:40:00.815Z,27.55
2022-08-03T17:42:29.457Z,27.53
2022-08-03T17:44:38.748Z,27.55
2022-08-03T17:46:46.022Z,27.50
2022-08-03T17:48:49.662Z,27.61
2022-08-03T17:50:55.576Z,27.62
2022-08-03T17:53:14.469Z,27.52
2022-08-03T17:55:57.715Z,27.59
2022-08-03T17:58:02.205Z,27.56
2022-08-03T18:00:24.711Z,27.50
2022-08-03T18:02:54.958Z,27.40
2022-08-03T18:05:16.305Z,27.31
2022-08-03T18:07:23.178Z,27.29
2022-08-03T18:10:05.565Z,27.21
2022-08-03T18:11:55.576Z,27.25
2022-08-03T18:14:27.591Z,27.18
2022-08-03T18:16:42.905Z,27.13
2022-08-03T18:18:45.057Z,27.07
2022-08-03T18:20:51.408Z,26.94
2022-08-03T18:22:54.834Z,26.90
2022-08-03T18:24:56.557Z,26.89
2022-08-03T18:27:02.346Z,26.88
2022-08-03T18:29:04.834Z,26.86
2022-08-03T18:31:13.268Z,26.86
2022-08-03T18:34:17.025Z,26.93
2022-08-03T18:36:00.544Z,26.93
2022-08-03T18:38:03.631Z,26.93
2022-08-03T18:40:12.390Z,26.94
2022-08-03T18:42:25.930Z,26.96
2022-08-03T18:44:46.441Z,26.91
2022-08-03T18:47:08.035Z,26.90
2022-08-03T18:49:48.588Z,26.90
2022-08-03T18:51:56.061Z,26.86
2022-08-03T18:54:12.234Z,26.82
2022-08-03T18:56:51.661Z,26.81
2022-08-03T18:59:11.218Z,26.74
2022-08-03T19:01:58.435Z,26.76
2022-08-03T19:04:13.417Z,26.67
2022-08-03T19:06:22.928Z,26.60
2022-08-03T19:08:37.272Z,26.49
2022-08-03T19:10:40.827Z,26.50
2022-08-03T19:13:30.833Z,26.53
2022-08-03T19:15:36.813Z,26.48
2022-08-03T19:17:50.292Z,26.47
2022-08-03T19:19:57.565Z,26.33
2022-08-03T19:21:59.845Z,26.41
2022-08-03T19:24:09.487Z,26.37
2022-08-03T19:26:30.545Z,26.24
2022-08-03T19:28:35.143Z,26.26
2022-08-03T19:30:53.297Z,26.25
2022-08-03T19:33:00.696Z,26.18
2022-08-03T19:35:05.447Z,26.19
2022-08-03T19:37:15.514Z,26.17
2022-08-03T19:39:17.899Z,26.07
2022-08-03T19:41:21.973Z,26.10
2022-08-03T19:43:53.330Z,25.99
2022-08-03T19:46:06.310Z,25.99
2022-08-03T19:48:25.048Z,25.95
2022-08-03T19:50:32.583Z,25.88
2022-08-03T19:52:38.248Z,25.87
2022-08-03T19:54:53.596Z,25.89
2022-08-03T19:56:56.661Z,25.79
2022-08-03T19:58:59.587Z,25.81
2022-08-03T20:01:19.458Z,25.80
2022-08-03T20:03:23.370Z,25.66
2022-08-03T20:05:27.327Z,25.71
2022-08-03T20:07:32.857Z,25.67
2022-08-03T20:09:35.894Z,25.68
2022-08-03T20:11:47.765Z,25.63
2022-08-03T20:13:51.680Z,25.63
2022-08-03T20:15:53.605Z,25.60
2022-08-03T20:17:58.792Z,25.51
2022-08-03T20:20:00.841Z,25.51
2022-08-03T20:22:02.613Z,25.42
2022-08-03T20:24:23.858Z,25.44
2022-08-03T20:26:32.279Z,25.39
2022-08-03T20:28:50.415Z,25.36
2022-08-03T20:31:10.656Z,25.34
2022-08-03T20:33:12.494Z,25.29
2022-08-03T20:35:20.919Z,25.21
2022-08-03T20:37:22.616Z,25.25
2022-08-03T20:39:24.356Z,25.20
2022-08-03T20:41:30.701Z,25.19
2022-08-03T20:43:33.628Z,25.09
2022-08-03T20:45:59.651Z,24.99
2022-08-03T20:47:57.824Z,25.09
2022-08-03T20:50:00.501Z,25.07
2022-08-03T20:52:02.471Z,25.10
2022-08-03T20:54:28.680Z,25.10
2022-08-03T20:56:31.897Z,25.07
2022-08-03T20:58:36.609Z,25.08
2022-08-03T21:00:38.458Z,25.06
2022-08-03T21:02:40.386Z,25.02
2022-08-03T21:04:45.032Z,25.03
2022-08-03T21:06:56.042Z,25.04
2022-08-03T21:09:04.260Z,25.07
2022-08-03T21:11:16.475Z,24.83
2022-08-03T21:13:32.244Z,24.84
2022-08-03T21:16:06.615Z,24.88
2022-08-03T21:17:59.437Z,24.92
2022-08-03T21:20:05.826Z,24.89
2022-08-03T21:22:09.036Z,24.86
2022-08-03T21:24:13.303Z,24.83
2022-08-03T21:26:17.506Z,24.66
2022-08-03T21:28:27.290Z,24.68
2022-08-03T21:30:30.589Z,24.66
2022-08-03T21:32:33.535Z,24.68
2022-08-03T21:34:36.044Z,24.63
2022-08-03T21:36:38.110Z,24.58
2022-08-03T21:38:40.978Z,24.50
2022-08-03T21:40:42.755Z,24.48
2022-08-03T21:42:53.049Z,24.51
2022-08-03T21:44:54.808Z,24.48
2022-08-03T21:46:58.172Z,24.48
2022-08-03T21:50:06.082Z,24.40
2022-08-03T21:51:26.024Z,24.41
2022-08-03T21:54:02.676Z,24.40
2022-08-03T21:56:17.995Z,24.38
2022-08-03T21:58:29.600Z,24.40
2022-08-03T22:00:31.518Z,24.38
2022-08-03T22:02:35.395Z,24.38
2022-08-03T22:04:54.987Z,24.38
2022-08-03T22:06:57.855Z,24.40
2022-08-03T22:08:59.898Z,24.36
2022-08-03T22:11:04.402Z,24.40
2022-08-03T22:13:06.721Z,24.39
2022-08-03T22:15:11.466Z,24.27
2022-08-03T22:17:14.474Z,24.32
2022-08-03T22:19:36.126Z,24.24
2022-08-03T22:21:39.874Z,24.17
2022-08-03T22:23:50.478Z,24.22
2022-08-03T22:25:52.851Z,24.25
2022-08-03T22:27:55.166Z,24.24
2022-08-03T22:30:02.335Z,24.24
2022-08-03T22:32:04.268Z,24.23
2022-08-03T22:34:05.976Z,24.19
2022-08-03T22:36:10.629Z,24.20
2022-08-03T22:38:12.370Z,24.22
2022-08-03T22:40:15.524Z,24.19
2022-08-03T22:42:19.637Z,24.15
2022-08-03T22:44:22.138Z,24.14
2022-08-03T22:46:25.941Z,24.15
2022-08-03T22:48:28.145Z,24.07
2022-08-03T22:50:34.830Z,24.01
2022-08-03T22:52:38.696Z,24.03
2022-08-03T22:54:41.366Z,24.00
2022-08-03T22:56:44.897Z,23.97
2022-08-03T22:58:46.543Z,23.94
2022-08-03T23:00:53.907Z,23.89
2022-08-03T23:03:00.297Z,23.92
2022-08-03T23:05:05.475Z,23.87
2022-08-03T23:07:15.191Z,23.88
2022-08-03T23:09:19.793Z,23.82
2022-08-03T23:11:23.404Z,23.78
2022-08-03T23:13:27.844Z,23.82
2022-08-03T23:15:30.526Z,23.71
2022-08-03T23:17:33.752Z,23.71
2022-08-03T23:19:44.587Z,23.69
2022-08-03T23:21:53.733Z,23.70
2022-08-03T23:24:05.401Z,23.64
2022-08-03T23:26:19.645Z,23.62
2022-08-03T23:28:22.032Z,23.58
2022-08-03T23:30:31.455Z,23.54
2022-08-03T23:32:34.899Z,23.58
2022-08-03T23:34:57.711Z,23.56
2022-08-03T23:37:01.779Z,23.57
2022-08-03T23:39:04.070Z,23.58
2022-08-03T23:41:08.411Z,23.56
2022-08-03T23:43:16.688Z,23.53
2022-08-03T23:45:35.801Z,23.49
2022-08-03T23:47:46.235Z,23.51
2022-08-03T23:49:50.049Z,23.49
2022-08-03T23:51:54.843Z,23.49
2022-08-03T23:54:31.977Z,23.48
2022-08-03T23:56:50.779Z,23.49
2022-08-03T23:59:36.535Z,23.51
